Time;durP1;ratioP1;P1;durP2;ratioP2;P2;SDS_P1;SDS_P2;PMS_P1;PMS_P2;Temp;Humidity;BMP_temperature;BMP_pressure;BME280_temperature;BME280_humidity;BME280_pressure;Samples;Min_cycle;Max_cycle;Signal;HPM_P1;HPM_P2
2023/05/22 00:00:39;;;;;;;2.75;2.55;;;23.30;50.40;;;;;;5052658;28;20041;-58
2023/05/22 00:03:07;;;;;;;2.80;2.60;;;23.30;50.40;;;;;;5066028;28;20094;-58
2023/05/22 00:05:37;;;;;;;3.10;2.90;;;23.30;50.40;;;;;;5072908;28;20404;-57
2023/05/22 00:08:10;;;;;;;2.75;2.55;;;23.30;50.40;;;;;;5074108;28;20064;-57
2023/05/22 00:10:38;;;;;;;2.78;2.58;;;23.30;50.40;;;;;;5072140;28;20500;-57
2023/05/22 00:13:05;;;;;;;3.83;3.20;;;23.30;50.40;;;;;;5072036;28;20447;-57
2023/05/22 00:15:33;;;;;;;2.97;2.72;;;23.30;50.40;;;;;;5071498;28;20416;-58
2023/05/22 00:18:00;;;;;;;3.17;2.90;;;23.30;50.40;;;;;;5073317;28;20097;-59
2023/05/22 00:20:27;;;;;;;2.95;2.75;;;23.30;50.40;;;;;;5072906;28;20052;-58
2023/05/22 00:22:55;;;;;;;3.15;2.95;;;23.30;50.40;;;;;;5072229;28;20489;-57
2023/05/22 00:25:22;;;;;;;2.97;2.72;;;23.30;50.50;;;;;;5071654;28;20412;-58
2023/05/22 00:27:50;;;;;;;2.65;2.45;;;23.30;51.10;;;;;;5073172;28;20048;-58
2023/05/22 00:30:17;;;;;;;3.75;3.00;;;23.30;50.50;;;;;;5073536;28;20106;-57
2023/05/22 00:32:44;;;;;;;3.22;2.92;;;23.20;50.50;;;;;;5072955;28;20098;-57
2023/05/22 00:35:11;;;;;;;3.55;3.25;;;23.20;50.50;;;;;;5071054;28;20051;-57
2023/05/22 00:37:38;;;;;;;3.53;2.95;;;23.20;50.50;;;;;;5073631;28;20045;-57
2023/05/22 00:40:07;;;;;;;2.90;2.70;;;23.20;50.50;;;;;;5072049;28;20049;-58
2023/05/22 00:42:34;;;;;;;3.15;2.85;;;23.20;50.50;;;;;;5072622;28;20079;-58
2023/05/22 00:45:01;;;;;;;3.35;3.10;;;23.20;50.60;;;;;;5072876;28;20120;-57
2023/05/22 00:47:29;;;;;;;2.83;2.63;;;23.20;50.60;;;;;;5072892;28;20079;-57
2023/05/22 00:49:57;;;;;;;2.85;2.60;;;23.10;50.50;;;;;;5072065;28;20401;-58
2023/05/22 00:52:25;;;;;;;3.00;2.80;;;23.20;50.60;;;;;;5072187;28;20096;-57
2023/05/22 00:54:52;;;;;;;2.83;2.50;;;23.10;50.60;;;;;;5072104;28;20088;-58
2023/05/22 00:57:21;;;;;;;3.03;2.72;;;23.10;50.60;;;;;;5071979;28;20080;-57
2023/05/22 00:59:49;;;;;;;3.03;2.83;;;23.10;50.70;;;;;;5071786;28;20049;-57
2023/05/22 01:02:16;;;;;;;2.80;2.60;;;23.10;50.70;;;;;;5071740;28;20170;-57
2023/05/22 01:04:47;;;;;;;2.63;2.42;;;23.10;50.70;;;;;;5087239;28;20052;-58
2023/05/22 01:07:18;;;;;;;2.78;2.58;;;23.10;50.70;;;;;;5070657;28;20505;-57
2023/05/22 01:09:45;;;;;;;2.90;2.67;;;23.10;50.70;;;;;;5072261;28;20048;-57
2023/05/22 01:12:31;;;;;;;2.40;2.20;;;23.10;50.80;;;;;;5071991;28;20091;-57
2023/05/22 01:15:38;;;;;;;2.92;2.72;;;23.10;50.80;;;;;;5071502;28;20139;-58
2023/05/22 01:18:28;;;;;;;2.92;2.72;;;23.10;50.80;;;;;;5072908;28;20041;-57
2023/05/22 01:21:20;;;;;;;3.08;2.60;;;23.10;50.80;;;;;;5072658;28;20065;-59
2023/05/22 01:24:27;;;;;;;2.60;2.40;;;23.10;50.80;;;;;;5072557;28;20088;-57
2023/05/22 01:27:34;;;;;;;3.05;2.80;;;23.10;50.90;;;;;;5071375;28;20040;-57
2023/05/22 01:30:30;;;;;;;2.67;2.47;;;23.00;50.80;;;;;;5071492;28;20088;-57
2023/05/22 01:32:58;;;;;;;3.47;3.17;;;23.00;50.90;;;;;;5071685;28;20102;-59
2023/05/22 01:35:27;;;;;;;2.70;2.50;;;23.00;50.90;;;;;;5071320;28;20496;-57
2023/05/22 01:37:56;;;;;;;2.28;2.10;;;23.00;50.90;;;;;;5072112;28;20049;-58
2023/05/22 01:40:24;;;;;;;2.58;2.38;;;23.00;51.00;;;;;;5071330;28;20044;-57
2023/05/22 01:42:51;;;;;;;3.55;3.17;;;23.00;51.00;;;;;;5072270;28;20076;-57
2023/05/22 01:45:20;;;;;;;2.78;2.58;;;23.00;51.00;;;;;;5070646;28;20467;-57
2023/05/22 01:47:47;;;;;;;3.05;2.85;;;23.00;51.10;;;;;;5071583;28;20072;-57
2023/05/22 01:50:15;;;;;;;2.90;2.60;;;23.00;51.10;;;;;;5070931;28;20044;-58
2023/05/22 01:53:06;;;;;;;2.70;2.50;;;23.00;51.10;;;;;;5072833;28;20049;-57
2023/05/22 01:55:44;;;;;;;2.47;2.28;;;23.00;51.10;;;;;;5072099;28;20080;-58
2023/05/22 01:58:30;;;;;;;2.08;1.98;;;23.00;51.10;;;;;;5071416;28;20143;-58
2023/05/22 02:00:59;;;;;;;2.33;2.22;;;23.00;51.10;;;;;;5051497;28;20067;-58
2023/05/22 02:03:30;;;;;;;3.20;2.63;;;23.00;51.10;;;;;;5051305;28;20049;-58
2023/05/22 02:06:02;;;;;;;2.92;2.72;;;23.00;51.10;;;;;;5050808;28;20335;-57
2023/05/22 02:08:30;;;;;;;2.78;2.45;;;23.00;51.10;;;;;;5051880;28;20079;-58
2023/05/22 02:10:59;;;;;;;2.33;2.15;;;23.00;51.10;;;;;;5052138;28;20045;-58
2023/05/22 02:13:27;;;;;;;3.28;2.97;;;23.00;51.00;;;;;;5055531;28;20128;-59
2023/05/22 02:15:57;;;;;;;2.40;2.20;;;23.00;51.00;;;;;;5056124;28;20055;-58
2023/05/22 02:18:30;;;;;;;2.75;2.53;;;23.00;51.00;;;;;;5055957;28;20053;-57
2023/05/22 02:20:58;;;;;;;3.08;2.88;;;23.00;51.00;;;;;;5055583;28;20132;-58
2023/05/22 02:23:28;;;;;;;2.55;2.35;;;23.00;51.00;;;;;;5055619;28;20448;-58
2023/05/22 02:25:55;;;;;;;3.03;2.72;;;23.00;51.00;;;;;;5053901;28;20080;-58
2023/05/22 02:28:23;;;;;;;2.60;2.40;;;23.00;51.00;;;;;;5055717;28;20048;-58
2023/05/22 02:30:50;;;;;;;2.55;2.35;;;23.00;51.00;;;;;;5055588;28;20099;-61
2023/05/22 02:33:17;;;;;;;2.90;2.60;;;23.00;51.00;;;;;;5054328;28;20095;-57
2023/05/22 02:35:45;;;;;;;3.15;2.85;;;23.00;51.10;;;;;;5054567;28;20076;-58
2023/05/22 02:38:12;;;;;;;2.33;2.13;;;22.90;51.00;;;;;;5055338;28;20120;-58
2023/05/22 02:40:39;;;;;;;2.38;2.17;;;22.90;51.00;;;;;;5055030;28;20528;-58
2023/05/22 02:43:07;;;;;;;2.70;2.50;;;22.90;51.10;;;;;;5055486;28;20102;-58
2023/05/22 02:45:34;;;;;;;2.85;2.65;;;22.90;51.00;;;;;;5054942;28;20041;-58
2023/05/22 02:48:02;;;;;;;2.10;2.00;;;22.90;51.10;;;;;;5055396;28;20136;-58
2023/05/22 02:50:29;;;;;;;2.22;2.10;;;22.90;51.10;;;;;;5054264;28;20049;-57
2023/05/22 02:52:56;;;;;;;2.30;2.10;;;22.90;51.10;;;;;;5055000;28;20099;-57
2023/05/22 02:55:24;;;;;;;2.30;2.10;;;22.90;51.10;;;;;;5054706;28;20052;-58
2023/05/22 02:57:51;;;;;;;2.78;2.58;;;22.90;51.20;;;;;;5061149;28;20084;-58
2023/05/22 03:00:18;;;;;;;2.55;2.35;;;22.90;51.10;;;;;;5075216;28;20052;-58
2023/05/22 03:02:46;;;;;;;2.20;2.10;;;22.90;51.10;;;;;;5074427;28;20083;-58
2023/05/22 03:05:16;;;;;;;3.60;2.38;;;22.90;51.20;;;;;;5073565;28;20552;-58
2023/05/22 03:07:44;;;;;;;2.80;2.60;;;22.90;51.10;;;;;;5075016;28;20055;-57
2023/05/22 03:10:14;;;;;;;3.28;2.30;;;22.90;51.20;;;;;;5074167;28;20567;-58
2023/05/22 03:12:41;;;;;;;2.47;2.28;;;22.90;51.20;;;;;;5074500;28;20080;-58
2023/05/22 03:15:10;;;;;;;2.90;2.60;;;22.90;51.20;;;;;;5074823;28;20114;-58
2023/05/22 03:17:37;;;;;;;2.60;2.40;;;22.90;51.20;;;;;;5074524;28;20071;-58
2023/05/22 03:20:05;;;;;;;2.17;2.08;;;22.90;51.20;;;;;;5074866;28;20102;-58
2023/05/22 03:22:32;;;;;;;2.70;2.50;;;22.90;51.20;;;;;;5074023;28;20049;-58
2023/05/22 03:25:00;;;;;;;2.42;2.28;;;22.90;51.20;;;;;;5074216;28;20044;-58
2023/05/22 03:27:27;;;;;;;2.25;2.15;;;22.90;51.20;;;;;;5073376;28;20085;-58
2023/05/22 03:29:54;;;;;;;2.45;2.30;;;22.90;51.20;;;;;;5072983;28;20056;-57
2023/05/22 03:32:21;;;;;;;2.35;2.17;;;22.90;51.20;;;;;;5074728;28;20102;-58
2023/05/22 03:34:48;;;;;;;2.67;2.47;;;22.90;51.10;;;;;;5073530;28;20056;-58
2023/05/22 03:37:15;;;;;;;2.80;2.25;;;22.90;51.10;;;;;;5074149;28;20050;-57
2023/05/22 03:39:42;;;;;;;2.38;2.17;;;22.90;51.10;;;;;;5074363;28;20084;-58
2023/05/22 03:42:12;;;;;;;2.72;2.30;;;22.90;51.10;;;;;;5074348;28;20400;-58
2023/05/22 03:44:39;;;;;;;2.17;2.03;;;22.90;51.10;;;;;;5079267;28;20101;-58
2023/05/22 03:47:06;;;;;;;2.97;2.75;;;22.90;51.10;;;;;;5072898;28;20047;-58
2023/05/22 03:49:33;;;;;;;1.85;1.75;;;23.00;51.20;;;;;;5074296;28;20106;-58
2023/05/22 03:52:01;;;;;;;2.63;2.42;;;23.00;51.10;;;;;;5073471;28;20482;-58
2023/05/22 03:54:28;;;;;;;2.45;2.03;;;23.00;51.10;;;;;;5073277;28;20074;-58
2023/05/22 03:56:56;;;;;;;2.33;2.13;;;23.00;51.10;;;;;;5073063;28;20052;-58
2023/05/22 03:59:23;;;;;;;2.38;2.25;;;23.00;51.00;;;;;;5072278;28;20157;-58
2023/05/22 04:01:50;;;;;;;2.67;2.47;;;23.00;50.90;;;;;;5073055;28;20052;-58
2023/05/22 04:04:17;;;;;;;2.40;2.20;;;23.00;50.90;;;;;;5073212;28;20084;-57
2023/05/22 04:06:44;;;;;;;2.17;2.05;;;23.10;51.40;;;;;;5073134;28;20132;-58
2023/05/22 04:09:12;;;;;;;2.45;2.25;;;23.10;50.80;;;;;;5072387;28;20541;-58
2023/05/22 04:11:40;;;;;;;2.63;2.42;;;23.10;50.80;;;;;;5072939;28;20090;-58
2023/05/22 04:14:08;;;;;;;2.35;2.20;;;23.10;50.70;;;;;;5071004;28;20045;-56
2023/05/22 04:16:36;;;;;;;2.60;2.38;;;23.10;50.60;;;;;;5070553;28;20048;-58
2023/05/22 04:19:03;;;;;;;2.47;2.28;;;23.20;50.60;;;;;;5071202;28;20489;-57
2023/05/22 04:21:34;;;;;;;2.78;2.58;;;23.20;50.50;;;;;;5073233;28;20405;-58
2023/05/22 04:24:05;;;;;;;2.53;2.33;;;23.20;50.40;;;;;;5071269;28;20044;-58
2023/05/22 04:26:33;;;;;;;2.30;2.10;;;23.20;50.30;;;;;;5065119;28;20051;-57
2023/05/22 04:29:01;;;;;;;2.50;2.28;;;23.20;50.30;;;;;;5071521;28;20044;-56
2023/05/22 04:31:28;;;;;;;2.58;2.38;;;23.30;50.30;;;;;;5070006;28;20048;-57
2023/05/22 04:33:55;;;;;;;2.22;2.13;;;23.30;50.20;;;;;;5072027;28;20053;-57
2023/05/22 04:36:24;;;;;;;2.40;2.22;;;23.30;50.20;;;;;;5071523;28;20052;-56
2023/05/22 04:38:52;;;;;;;2.73;2.53;;;23.30;50.10;;;;;;5068761;28;20044;-56
2023/05/22 04:41:27;;;;;;;2.50;2.30;;;23.30;50.10;;;;;;5072186;28;20504;-57
2023/05/22 04:43:54;;;;;;;2.47;2.28;;;23.40;50.10;;;;;;5072038;28;20519;-57
2023/05/22 04:46:21;;;;;;;2.28;2.10;;;23.40;50.00;;;;;;5070228;28;20048;-57
2023/05/22 04:48:49;;;;;;;2.90;2.70;;;23.40;50.00;;;;;;5072429;28;20053;-56
2023/05/22 04:51:17;;;;;;;2.70;2.50;;;23.40;50.00;;;;;;5073058;28;20087;-56
2023/05/22 04:53:44;;;;;;;2.70;2.50;;;23.40;50.10;;;;;;5071235;28;20044;-56
2023/05/22 04:56:12;;;;;;;3.50;3.20;;;23.40;50.10;;;;;;5068473;28;20040;-57
2023/05/22 04:58:52;;;;;;;2.70;2.50;;;23.40;50.10;;;;;;5072616;28;20634;-57
2023/05/22 05:01:20;;;;;;;2.65;2.40;;;23.50;50.20;;;;;;5072667;28;20515;-57
2023/05/22 05:03:47;;;;;;;3.38;3.00;;;23.50;50.20;;;;;;5073244;28;20409;-57
2023/05/22 05:06:16;;;;;;;2.97;2.67;;;23.50;50.20;;;;;;5055139;28;20429;-57
2023/05/22 05:08:45;;;;;;;3.65;2.90;;;23.50;50.20;;;;;;5062270;28;20045;-57
2023/05/22 05:11:12;;;;;;;3.40;3.10;;;23.50;50.20;;;;;;5072173;28;20374;-57
2023/05/22 05:13:40;;;;;;;2.92;2.72;;;23.60;50.20;;;;;;5070914;28;20045;-56
2023/05/22 05:16:07;;;;;;;3.05;2.75;;;23.60;50.20;;;;;;5065221;28;20079;-56
2023/05/22 05:18:35;;;;;;;3.65;3.13;;;23.60;50.20;;;;;;5057092;28;20080;-56
2023/05/22 05:21:02;;;;;;;4.35;3.13;;;23.60;50.20;;;;;;5063961;28;20049;-56
2023/05/22 05:23:29;;;;;;;3.22;2.92;;;23.60;50.30;;;;;;5069849;28;20120;-59
2023/05/22 05:25:57;;;;;;;3.40;3.10;;;23.60;50.30;;;;;;5066651;28;20049;-57
2023/05/22 05:28:25;;;;;;;3.67;3.38;;;23.70;50.80;;;;;;5067030;28;20489;-56
2023/05/22 05:30:52;;;;;;;3.50;3.20;;;23.70;50.80;;;;;;5068829;28;20091;-57
2023/05/22 05:33:19;;;;;;;4.68;3.22;;;23.70;51.10;;;;;;5059963;28;20073;-58
2023/05/22 05:35:49;;;;;;;3.47;3.20;;;23.70;51.30;;;;;;5068052;28;20489;-59
2023/05/22 05:38:16;;;;;;;3.53;3.08;;;23.80;50.90;;;;;;5074447;28;20048;-58
2023/05/22 05:40:45;;;;;;;4.65;3.42;;;23.80;50.60;;;;;;5066446;28;20044;-57
2023/05/22 05:43:15;;;;;;;3.25;2.95;;;23.80;50.30;;;;;;5059789;28;20075;-56
2023/05/22 05:45:45;;;;;;;;;;;23.80;50.70;;;;;;5065991;28;20053;-57
2023/05/22 05:48:12;;;;;;;3.17;2.88;;;23.90;50.90;;;;;;5067549;28;19928;-58
2023/05/22 05:50:40;;;;;;;3.25;2.92;;;23.90;50.50;;;;;;5060777;28;20044;-58
2023/05/22 05:53:07;;;;;;;3.47;3.03;;;23.90;50.20;;;;;;5056960;28;20110;-57
2023/05/22 05:55:34;;;;;;;4.43;4.03;;;24.00;50.10;;;;;;5053662;28;20048;-58
2023/05/22 05:58:02;;;;;;;6.38;3.28;;;24.00;50.00;;;;;;5065835;28;20505;-57
2023/05/22 06:00:29;;;;;;;5.18;3.03;;;24.10;50.10;;;;;;5065664;28;20044;-59
2023/05/22 06:02:56;;;;;;;3.45;3.15;;;24.10;50.50;;;;;;5066379;28;20048;-58
2023/05/22 06:05:25;;;;;;;5.03;3.38;;;24.10;50.30;;;;;;5068011;28;20520;-58
2023/05/22 06:07:53;;;;;;;7.20;3.22;;;24.10;50.70;;;;;;5067735;28;20139;-58
2023/05/22 06:10:20;;;;;;;3.38;3.08;;;24.20;50.90;;;;;;5066860;28;20037;-58
2023/05/22 06:12:48;;;;;;;3.53;3.20;;;24.20;51.00;;;;;;5064283;28;20048;-58
2023/05/22 06:15:16;;;;;;;3.72;3.30;;;24.30;50.40;;;;;;5067019;28;20052;-58
2023/05/22 06:17:43;;;;;;;5.75;3.58;;;24.30;50.30;;;;;;5064508;28;20071;-59
2023/05/22 06:20:13;;;;;;;4.75;3.90;;;24.30;50.10;;;;;;5061990;28;20045;-58
2023/05/22 06:22:40;;;;;;;3.60;3.30;;;24.40;50.30;;;;;;5065287;28;20152;-58
2023/05/22 06:25:08;;;;;;;5.13;3.58;;;24.40;49.90;;;;;;5067103;28;20485;-58
2023/05/22 06:27:35;;;;;;;3.97;3.58;;;24.50;49.80;;;;;;5068783;28;20048;-58
2023/05/22 06:30:03;;;;;;;5.43;3.17;;;24.50;50.00;;;;;;5063387;28;20144;-59
2023/05/22 06:32:30;;;;;;;8.02;3.85;;;24.50;50.30;;;;;;5062568;28;20776;-59
2023/05/22 06:34:58;;;;;;;4.18;3.40;;;24.50;50.00;;;;;;5062019;28;21253;-59
2023/05/22 06:37:26;;;;;;;3.65;3.35;;;24.50;49.90;;;;;;5055442;28;20056;-60
2023/05/22 06:39:53;;;;;;;6.20;3.08;;;24.60;50.00;;;;;;5058476;28;20060;-60
2023/05/22 06:42:20;;;;;;;4.05;3.17;;;24.60;49.60;;;;;;5062895;28;20061;-60
2023/05/22 06:44:47;;;;;;;4.65;3.63;;;24.60;49.40;;;;;;5065152;28;20102;-60
2023/05/22 06:47:14;;;;;;;5.65;3.92;;;24.70;49.40;;;;;;5062285;28;20087;-58
2023/05/22 06:49:42;;;;;;;4.53;4.10;;;24.70;49.20;;;;;;5062765;28;20059;-57
2023/05/22 06:52:09;;;;;;;4.88;3.60;;;24.70;49.10;;;;;;5063192;28;20566;-59
2023/05/22 06:54:41;;;;;;;4.32;3.35;;;24.70;49.20;;;;;;5064890;28;20052;-59
2023/05/22 06:57:09;;;;;;;4.05;3.65;;;24.70;49.10;;;;;;5065895;28;20101;-59
2023/05/22 06:59:37;;;;;;;5.28;3.47;;;24.70;49.00;;;;;;5064383;28;20479;-59
2023/05/22 07:02:04;;;;;;;3.88;3.35;;;24.70;49.10;;;;;;5066228;28;20045;-58
2023/05/22 07:04:32;;;;;;;6.53;3.60;;;24.70;49.10;;;;;;5064211;28;20117;-59
2023/05/22 07:07:00;;;;;;;5.88;3.95;;;24.70;49.20;;;;;;5064364;28;20087;-59
2023/05/22 07:09:27;;;;;;;7.20;4.40;;;24.70;49.10;;;;;;5067605;28;20123;-59
2023/05/22 07:11:54;;;;;;;7.18;4.47;;;24.70;49.10;;;;;;5067582;28;20503;-60
2023/05/22 07:14:21;;;;;;;24.20;5.88;;;24.80;49.30;;;;;;5066687;28;20041;-60
2023/05/22 07:16:49;;;;;;;8.70;4.55;;;24.80;49.20;;;;;;5065750;28;20428;-59
2023/05/22 07:19:16;;;;;;;6.50;4.03;;;24.80;49.20;;;;;;5062570;28;20063;-59
2023/05/22 07:21:43;;;;;;;6.30;4.18;;;24.80;49.30;;;;;;5061709;28;20560;-59
2023/05/22 07:24:11;;;;;;;7.28;4.97;;;24.80;49.30;;;;;;5066297;28;20722;-59
2023/05/22 07:26:45;;;;;;;5.78;4.40;;;24.80;49.30;;;;;;5063849;28;20044;-60
2023/05/22 07:29:15;;;;;;;10.00;5.45;;;24.80;49.20;;;;;;5064389;28;20481;-60
2023/05/22 07:31:43;;;;;;;8.38;5.90;;;24.90;49.20;;;;;;5069300;28;20098;-59
2023/05/22 07:34:10;;;;;;;11.27;6.85;;;24.90;49.10;;;;;;5070215;28;20045;-60
2023/05/22 07:36:37;;;;;;;8.07;5.32;;;24.80;49.20;;;;;;5066826;28;20109;-60
2023/05/22 07:39:05;;;;;;;6.50;5.05;;;24.90;49.30;;;;;;5066795;28;20730;-60
2023/05/22 07:41:32;;;;;;;12.80;5.82;;;24.90;49.30;;;;;;5064084;28;20147;-59
2023/05/22 07:44:00;;;;;;;6.85;4.68;;;24.90;49.20;;;;;;5068382;28;20110;-60
2023/05/22 07:46:28;;;;;;;9.38;5.00;;;24.90;49.20;;;;;;5067681;28;20715;-59
2023/05/22 07:48:55;;;;;;;10.90;5.50;;;24.90;49.10;;;;;;5066371;28;20489;-61
2023/05/22 07:51:22;;;;;;;10.65;4.55;;;25.00;49.20;;;;;;5067635;28;20052;-59
2023/05/22 07:53:50;;;;;;;7.38;4.22;;;24.90;49.00;;;;;;5070420;28;20047;-59
2023/05/22 07:56:17;;;;;;;10.02;4.78;;;25.00;49.10;;;;;;5060557;28;20173;-61
2023/05/22 07:58:47;;;;;;;6.68;4.95;;;24.90;48.80;;;;;;5065348;28;20509;-59
2023/05/22 08:01:17;;;;;;;;;;;25.00;48.70;;;;;;5064645;28;20095;-59
2023/05/22 08:03:44;;;;;;;5.63;4.00;;;25.00;49.20;;;;;;5068179;28;20011;-58
2023/05/22 08:06:12;;;;;;;6.15;3.83;;;25.00;48.40;;;;;;5065094;28;20127;-58
2023/05/22 08:08:39;;;;;;;8.02;4.45;;;25.00;48.20;;;;;;5065935;28;20074;-58
2023/05/22 08:11:06;;;;;;;5.82;4.63;;;25.00;48.00;;;;;;5060517;28;20056;-58
2023/05/22 08:13:36;;;;;;;6.90;4.35;;;25.00;47.70;;;;;;5066492;28;20044;-59
2023/05/22 08:16:04;;;;;;;5.90;4.10;;;25.00;47.50;;;;;;5067240;28;20049;-59
2023/05/22 08:18:31;;;;;;;5.45;3.97;;;25.00;47.40;;;;;;5063595;28;20049;-59
2023/05/22 08:20:59;;;;;;;4.38;3.83;;;25.00;48.00;;;;;;5065587;28;20052;-59
2023/05/22 08:23:26;;;;;;;6.97;3.90;;;25.10;47.50;;;;;;5062922;28;20499;-59
2023/05/22 08:25:53;;;;;;;6.55;4.45;;;25.10;47.50;;;;;;5069635;28;20492;-59
2023/05/22 08:28:21;;;;;;;4.70;4.30;;;25.10;47.50;;;;;;5063898;28;20087;-59
2023/05/22 08:30:49;;;;;;;5.03;3.92;;;25.10;47.50;;;;;;5067003;28;20121;-59
2023/05/22 08:33:18;;;;;;;6.38;3.53;;;25.10;47.30;;;;;;5066385;28;20082;-59
2023/05/22 08:35:45;;;;;;;4.43;4.00;;;25.10;47.30;;;;;;5066795;28;20052;-60
2023/05/22 08:38:14;;;;;;;4.95;4.47;;;25.10;47.20;;;;;;5066458;28;20044;-60
2023/05/22 08:40:42;;;;;;;4.53;3.83;;;25.10;47.10;;;;;;5066186;28;20142;-60
2023/05/22 08:43:12;;;;;;;6.57;3.80;;;25.20;47.10;;;;;;5069135;28;20052;-60
2023/05/22 08:45:41;;;;;;;4.38;3.85;;;25.20;47.00;;;;;;5066939;28;20113;-60
2023/05/22 08:48:12;;;;;;;4.50;4.10;;;25.20;47.00;;;;;;5069110;28;20044;-60
2023/05/22 08:50:42;;;;;;;4.32;3.95;;;25.20;47.00;;;;;;5060867;28;20051;-59
2023/05/22 08:53:14;;;;;;;7.47;3.95;;;25.20;47.00;;;;;;5065592;28;20098;-60
2023/05/22 08:55:41;;;;;;;4.25;3.50;;;25.20;47.00;;;;;;5061959;28;20048;-59
2023/05/22 08:58:10;;;;;;;6.07;4.10;;;25.20;46.90;;;;;;5065602;28;20454;-61
2023/05/22 09:00:37;;;;;;;5.22;3.83;;;25.20;46.90;;;;;;5065222;28;20401;-60
2023/05/22 09:03:05;;;;;;;5.95;3.92;;;25.30;47.00;;;;;;5066745;28;20063;-60
2023/05/22 09:05:33;;;;;;;6.32;4.20;;;25.30;46.90;;;;;;5062993;28;20392;-58
2023/05/22 09:08:01;;;;;;;4.20;3.80;;;25.30;46.90;;;;;;5063782;28;20078;-59
2023/05/22 09:10:46;;;;;;;5.68;4.35;;;25.30;47.00;;;;;;5065075;28;20055;-60
2023/05/22 09:13:27;;;;;;;5.00;3.65;;;25.30;46.90;;;;;;5066603;28;20053;-60
2023/05/22 09:16:10;;;;;;;4.03;3.08;;;25.40;46.80;;;;;;5066277;28;20378;-60
2023/05/22 09:18:38;;;;;;;5.18;3.88;;;25.40;46.70;;;;;;5066337;28;20102;-59
2023/05/22 09:21:06;;;;;;;4.05;3.60;;;25.40;46.60;;;;;;5069178;28;20123;-60
2023/05/22 09:23:57;;;;;;;3.60;3.30;;;25.40;46.60;;;;;;5074265;28;20127;-60
2023/05/22 09:26:28;;;;;;;4.13;3.67;;;25.40;46.60;;;;;;5072728;28;20432;-60
2023/05/22 09:28:57;;;;;;;;;;;25.40;46.50;;;;;;5069519;28;20102;-58
2023/05/22 09:31:24;;;;;;;4.78;3.67;;;25.40;46.40;;;;;;5069909;28;19966;-59
2023/05/22 09:33:53;;;;;;;6.53;3.83;;;25.40;46.20;;;;;;5064665;28;20080;-58
2023/05/22 09:36:21;;;;;;;3.55;3.25;;;25.50;46.20;;;;;;5068947;28;20049;-58
2023/05/22 09:38:48;;;;;;;6.30;3.67;;;25.50;46.10;;;;;;5069215;28;20055;-59
2023/05/22 09:41:22;;;;;;;4.43;3.65;;;25.50;46.00;;;;;;5064740;28;20048;-61
2023/05/22 09:43:50;;;;;;;4.90;3.78;;;25.50;46.00;;;;;;5067075;28;20075;-58
2023/05/22 09:46:17;;;;;;;7.45;4.10;;;25.50;46.10;;;;;;5062740;28;20048;-59
2023/05/22 09:48:51;;;;;;;8.20;4.13;;;25.50;46.10;;;;;;5075697;28;20052;-58
2023/05/22 09:51:25;;;;;;;3.88;3.58;;;25.50;46.00;;;;;;5068904;28;20132;-58
2023/05/22 09:54:02;;;;;;;4.07;3.55;;;25.50;46.00;;;;;;5070001;28;20049;-58
2023/05/22 09:56:34;;;;;;;6.43;3.83;;;25.50;46.00;;;;;;5065378;28;20597;-61
2023/05/22 09:59:08;;;;;;;6.32;4.18;;;25.50;46.00;;;;;;5065766;28;20072;-60
2023/05/22 10:01:37;;;;;;;10.82;4.22;;;25.50;46.10;;;;;;5067736;28;20080;-58
2023/05/22 10:04:11;;;;;;;4.93;3.63;;;25.60;46.10;;;;;;5068159;28;20110;-57
2023/05/22 10:06:40;;;;;;;4.95;4.28;;;25.60;46.10;;;;;;5066267;28;20309;-56
2023/05/22 10:09:13;;;;;;;7.22;4.05;;;25.60;46.10;;;;;;5068725;28;20492;-57
2023/05/22 10:11:43;;;;;;;4.65;3.92;;;25.60;46.10;;;;;;5068922;28;20045;-57
2023/05/22 10:14:12;;;;;;;4.03;3.55;;;25.60;46.10;;;;;;5071707;28;20078;-59
2023/05/22 10:16:40;;;;;;;5.20;3.63;;;25.60;46.10;;;;;;5066243;28;20055;-58
2023/05/22 10:19:09;;;;;;;3.67;3.38;;;25.70;45.70;;;;;;5066548;28;20521;-58
2023/05/22 10:21:37;;;;;;;4.75;3.05;;;25.70;45.40;;;;;;5070690;28;20094;-59
2023/05/22 10:24:06;;;;;;;4.13;3.35;;;25.70;45.00;;;;;;5061241;28;20048;-63
2023/05/22 10:26:33;;;;;;;6.07;3.95;;;25.70;44.80;;;;;;5060722;28;20048;-58
2023/05/22 10:29:09;;;;;;;2.92;2.53;;;25.70;44.60;;;;;;5067126;28;20048;-58
2023/05/22 10:31:54;;;;;;;3.38;3.08;;;25.70;44.20;;;;;;5067689;28;20048;-59
2023/05/22 10:34:39;;;;;;;4.38;3.35;;;25.70;43.90;;;;;;5063618;28;20068;-60
2023/05/22 10:37:46;;;;;;;4.88;3.35;;;25.70;43.90;;;;;;5069649;28;20135;-57
2023/05/22 10:40:32;;;;;;;6.25;3.95;;;25.70;43.70;;;;;;5066736;28;20044;-60
2023/05/22 10:43:00;;;;;;;5.60;3.30;;;25.70;43.80;;;;;;5063246;28;20051;-60
2023/05/22 10:45:28;;;;;;;6.47;3.08;;;25.70;43.70;;;;;;5062489;28;20045;-62
2023/05/22 10:48:03;;;;;;;3.40;3.10;;;25.70;43.60;;;;;;5069273;28;20122;-62
2023/05/22 10:50:30;;;;;;;5.07;2.83;;;25.70;43.40;;;;;;5067578;28;20441;-62
2023/05/22 10:53:24;;;;;;;3.55;3.10;;;25.80;43.00;;;;;;5070890;28;20053;-61
2023/05/22 10:55:54;;;;;;;3.85;3.33;;;25.80;42.40;;;;;;5066615;28;20102;-62
2023/05/22 10:58:35;;;;;;;3.72;3.05;;;25.80;42.20;;;;;;5065811;28;20040;-62
2023/05/22 11:01:16;;;;;;;6.70;3.78;;;25.80;42.80;;;;;;5066360;28;20105;-65
2023/05/22 11:03:56;;;;;;;3.38;3.08;;;25.90;42.60;;;;;;5063924;28;20048;-64
2023/05/22 11:06:44;;;;;;;3.58;3.05;;;25.90;42.90;;;;;;5065622;28;20083;-61
2023/05/22 11:09:32;;;;;;;4.97;2.95;;;25.90;42.60;;;;;;5066889;28;20135;-66
2023/05/22 11:12:19;;;;;;;4.68;3.58;;;25.90;42.70;;;;;;5068596;28;20061;-60
2023/05/22 11:15:07;;;;;;;3.45;3.15;;;26.00;42.80;;;;;;5066453;28;20098;-64
2023/05/22 11:17:45;;;;;;;4.32;2.85;;;26.00;43.10;;;;;;5066350;28;20543;-62
2023/05/22 11:20:19;;;;;;;4.90;3.20;;;26.00;43.00;;;;;;5065495;28;20094;-61
2023/05/22 11:26:19;;;;;;;6.78;3.78;;;26.10;42.70;;;;;;5065319;28;20106;-61
2023/05/22 11:28:52;;;;;;;3.17;2.97;;;26.10;42.20;;;;;;5066849;28;20474;-62
2023/05/22 11:31:21;;;;;;;5.50;3.20;;;26.10;41.70;;;;;;5066475;28;20489;-61
2023/05/22 11:33:49;;;;;;;;;;;26.10;41.60;;;;;;5066320;28;20044;-60
2023/05/22 11:36:16;;;;;;;4.07;3.35;;;26.20;41.80;;;;;;5067697;28;20368;-61
2023/05/22 11:38:44;;;;;;;3.45;3.15;;;26.20;41.70;;;;;;5066420;28;20574;-60
2023/05/22 11:41:11;;;;;;;5.78;3.13;;;26.30;41.80;;;;;;5066589;28;20049;-59
2023/05/22 11:43:41;;;;;;;4.57;3.20;;;26.30;41.60;;;;;;5069320;28;20505;-60
2023/05/22 11:46:09;;;;;;;;;;;26.40;41.40;;;;;;5066104;28;20468;-60
2023/05/22 11:48:41;;;;;;;3.15;2.95;;;26.40;41.30;;;;;;5067180;28;20020;-60
2023/05/22 11:51:09;;;;;;;5.18;3.20;;;26.50;41.60;;;;;;5066491;28;20093;-60
2023/05/22 11:53:37;;;;;;;4.60;3.58;;;26.50;41.60;;;;;;5068424;28;20127;-60
2023/05/22 11:56:05;;;;;;;3.95;2.65;;;26.60;41.70;;;;;;5065456;28;20064;-60
2023/05/22 11:58:32;;;;;;;6.65;3.10;;;26.60;41.80;;;;;;5067817;28;20101;-61
2023/05/22 12:01:01;;;;;;;5.90;2.85;;;26.60;41.80;;;;;;5066523;28;20048;-58
2023/05/22 12:03:29;;;;;;;4.35;2.60;;;26.60;41.80;;;;;;5064900;28;20430;-60
2023/05/22 12:05:57;;;;;;;6.38;3.40;;;26.70;42.30;;;;;;5068054;28;20480;-61
2023/05/22 12:08:25;;;;;;;3.22;2.92;;;26.70;42.40;;;;;;5062040;28;20060;-59
2023/05/22 12:10:53;;;;;;;4.25;3.05;;;26.70;42.30;;;;;;5068337;28;20070;-59
2023/05/22 12:13:28;;;;;;;3.72;2.83;;;26.70;42.50;;;;;;5063750;28;20064;-59
2023/05/22 12:15:59;;;;;;;5.03;3.00;;;26.60;42.40;;;;;;5064478;28;20106;-60
2023/05/22 12:18:34;;;;;;;4.38;3.53;;;26.60;42.60;;;;;;5062403;28;20048;-60
2023/05/22 12:21:05;;;;;;;6.40;3.30;;;26.60;42.60;;;;;;5065798;28;20053;-59
2023/05/22 12:23:32;;;;;;;4.65;3.30;;;26.70;42.80;;;;;;5067619;28;20080;-60
2023/05/22 12:26:07;;;;;;;8.00;3.35;;;26.70;42.80;;;;;;5064329;28;20400;-60
2023/05/22 12:28:37;;;;;;;4.95;3.33;;;26.70;42.90;;;;;;5069190;28;20113;-58
2023/05/22 12:31:05;;;;;;;3.50;3.15;;;26.70;42.70;;;;;;5066884;28;20052;-61
2023/05/22 12:33:32;;;;;;;4.32;3.88;;;26.70;42.40;;;;;;5063444;28;20056;-59
2023/05/22 12:35:59;;;;;;;7.18;4.05;;;26.70;42.50;;;;;;5065641;28;20102;-61
2023/05/22 12:38:29;;;;;;;4.43;3.40;;;26.70;42.50;;;;;;5063558;28;20044;-60
2023/05/22 12:40:59;;;;;;;4.13;3.60;;;26.70;42.10;;;;;;5061863;28;20047;-61
2023/05/22 12:43:26;;;;;;;4.07;3.67;;;26.70;42.10;;;;;;5064817;28;20044;-61
2023/05/22 12:45:53;;;;;;;4.85;3.25;;;26.70;42.20;;;;;;5067878;28;20094;-62
2023/05/22 12:48:21;;;;;;;7.25;3.53;;;26.70;42.20;;;;;;5064381;28;20053;-59
2023/05/22 12:50:49;;;;;;;5.15;3.80;;;26.70;42.20;;;;;;5064160;28;20088;-59
2023/05/22 12:53:18;;;;;;;5.95;3.70;;;26.70;42.00;;;;;;5068843;28;20490;-60
2023/05/22 12:55:45;;;;;;;5.18;3.42;;;26.70;41.80;;;;;;5060800;28;20086;-60
2023/05/22 12:58:12;;;;;;;6.60;3.58;;;26.70;41.80;;;;;;5064330;28;20052;-60
2023/05/22 13:00:39;;;;;;;4.15;3.33;;;26.70;41.30;;;;;;5060895;28;20140;-59
2023/05/22 13:03:07;;;;;;;5.25;3.47;;;26.70;41.10;;;;;;5066692;28;20600;-63
2023/05/22 13:05:35;;;;;;;5.53;3.45;;;26.70;40.90;;;;;;5064409;28;20051;-59